sensor_id;sensor_type;location;lat;lon;timestamp;temperature;humidity
7427;DHT22;3755;59.316;18.092;2023-07-13T00:02:26;15.70;99.90
7427;DHT22;3755;59.316;18.092;2023-07-13T00:04:54;15.70;99.90
7427;DHT22;3755;59.316;18.092;2023-07-13T00:07:22;15.60;99.90
7427;DHT22;3755;59.316;18.092;2023-07-13T00:09:52;15.60;99.90
7427;DHT22;3755;59.316;18.092;2023-07-13T00:12:24;15.60;99.90
7427;DHT22;3755;59.316;18.092;2023-07-13T00:14:52;15.60;99.90
7427;DHT22;3755;59.316;18.092;2023-07-13T00:17:19;15.50;99.90
7427;DHT22;3755;59.316;18.092;2023-07-13T00:19:46;15.50;99.90
7427;DHT22;3755;59.316;18.092;2023-07-13T00:22:13;15.50;99.90
7427;DHT22;3755;59.316;18.092;2023-07-13T00:24:42;15.40;99.90
7427;DHT22;3755;59.316;18.092;2023-07-13T00:27:09;15.40;99.90
7427;DHT22;3755;59.316;18.092;2023-07-13T00:29:37;15.40;99.90
7427;DHT22;3755;59.316;18.092;2023-07-13T00:32:05;15.40;99.90
7427;DHT22;3755;59.316;18.092;2023-07-13T00:34:33;15.30;99.90
7427;DHT22;3755;59.316;18.092;2023-07-13T00:37:00;15.30;99.90
7427;DHT22;3755;59.316;18.092;2023-07-13T00:39:28;15.30;99.90
7427;DHT22;3755;59.316;18.092;2023-07-13T00:41:56;15.30;99.90
7427;DHT22;3755;59.316;18.092;2023-07-13T00:44:23;15.30;99.90
7427;DHT22;3755;59.316;18.092;2023-07-13T00:46:51;15.20;99.90
7427;DHT22;3755;59.316;18.092;2023-07-13T00:49:20;15.20;99.90
7427;DHT22;3755;59.316;18.092;2023-07-13T00:51:50;15.20;99.90
7427;DHT22;3755;59.316;18.092;2023-07-13T00:54:22;15.10;99.90
7427;DHT22;3755;59.316;18.092;2023-07-13T00:56:54;15.10;99.90
7427;DHT22;3755;59.316;18.092;2023-07-13T00:59:24;15.10;99.90
7427;DHT22;3755;59.316;18.092;2023-07-13T01:01:51;15.10;99.90
7427;DHT22;3755;59.316;18.092;2023-07-13T01:04:19;15.10;99.90
7427;DHT22;3755;59.316;18.092;2023-07-13T01:06:46;15.10;99.90
7427;DHT22;3755;59.316;18.092;2023-07-13T01:09:14;15.10;99.90
7427;DHT22;3755;59.316;18.092;2023-07-13T01:11:42;15.10;99.90
7427;DHT22;3755;59.316;18.092;2023-07-13T01:14:10;15.10;99.90
7427;DHT22;3755;59.316;18.092;2023-07-13T01:16:40;15.10;99.90
7427;DHT22;3755;59.316;18.092;2023-07-13T01:19:15;15.10;99.90
7427;DHT22;3755;59.316;18.092;2023-07-13T01:21:50;15.20;99.90
7427;DHT22;3755;59.316;18.092;2023-07-13T01:24:17;15.20;99.90
7427;DHT22;3755;59.316;18.092;2023-07-13T01:26:45;15.30;99.90
7427;DHT22;3755;59.316;18.092;2023-07-13T01:29:12;15.30;99.90
7427;DHT22;3755;59.316;18.092;2023-07-13T01:31:39;15.20;99.90
7427;DHT22;3755;59.316;18.092;2023-07-13T01:34:06;15.20;99.90
7427;DHT22;3755;59.316;18.092;2023-07-13T01:36:33;15.20;99.90
7427;DHT22;3755;59.316;18.092;2023-07-13T01:39:03;15.30;99.90
7427;DHT22;3755;59.316;18.092;2023-07-13T01:41:30;15.30;99.90
7427;DHT22;3755;59.316;18.092;2023-07-13T01:43:57;15.30;99.90
7427;DHT22;3755;59.316;18.092;2023-07-13T01:46:24;15.30;99.90
7427;DHT22;3755;59.316;18.092;2023-07-13T01:48:52;15.30;99.90
7427;DHT22;3755;59.316;18.092;2023-07-13T01:51:19;15.30;99.90
7427;DHT22;3755;59.316;18.092;2023-07-13T01:53:46;15.30;99.90
7427;DHT22;3755;59.316;18.092;2023-07-13T01:56:15;15.20;99.90
7427;DHT22;3755;59.316;18.092;2023-07-13T01:58:42;15.20;99.90
7427;DHT22;3755;59.316;18.092;2023-07-13T02:01:09;15.20;99.90
7427;DHT22;3755;59.316;18.092;2023-07-13T02:03:36;15.20;99.90
7427;DHT22;3755;59.316;18.092;2023-07-13T02:06:04;15.20;99.90
7427;DHT22;3755;59.316;18.092;2023-07-13T02:08:32;15.20;99.90
7427;DHT22;3755;59.316;18.092;2023-07-13T02:11:00;15.20;99.90
7427;DHT22;3755;59.316;18.092;2023-07-13T02:13:28;15.20;99.90
7427;DHT22;3755;59.316;18.092;2023-07-13T02:15:55;15.20;99.90
7427;DHT22;3755;59.316;18.092;2023-07-13T02:18:22;15.20;99.90
7427;DHT22;3755;59.316;18.092;2023-07-13T02:20:50;15.20;99.90
7427;DHT22;3755;59.316;18.092;2023-07-13T02:23:17;15.10;99.90
7427;DHT22;3755;59.316;18.092;2023-07-13T02:25:45;15.10;99.90
7427;DHT22;3755;59.316;18.092;2023-07-13T02:28:13;15.10;99.90
7427;DHT22;3755;59.316;18.092;2023-07-13T02:30:41;15.10;99.90
7427;DHT22;3755;59.316;18.092;2023-07-13T02:33:08;15.10;99.90
7427;DHT22;3755;59.316;18.092;2023-07-13T02:35:35;15.10;99.90
7427;DHT22;3755;59.316;18.092;2023-07-13T02:38:02;15.10;99.90
7427;DHT22;3755;59.316;18.092;2023-07-13T02:40:30;15.10;99.90
7427;DHT22;3755;59.316;18.092;2023-07-13T02:42:58;15.10;99.90
7427;DHT22;3755;59.316;18.092;2023-07-13T02:45:25;15.10;99.90
7427;DHT22;3755;59.316;18.092;2023-07-13T02:47:54;15.10;99.90
7427;DHT22;3755;59.316;18.092;2023-07-13T02:50:21;15.10;99.90
7427;DHT22;3755;59.316;18.092;2023-07-13T02:52:48;15.10;99.90
7427;DHT22;3755;59.316;18.092;2023-07-13T02:55:15;15.10;99.90
7427;DHT22;3755;59.316;18.092;2023-07-13T02:57:43;15.00;99.90
7427;DHT22;3755;59.316;18.092;2023-07-13T03:00:11;15.10;99.90
7427;DHT22;3755;59.316;18.092;2023-07-13T03:02:38;15.00;99.90
7427;DHT22;3755;59.316;18.092;2023-07-13T03:05:07;15.10;99.90
7427;DHT22;3755;59.316;18.092;2023-07-13T03:07:36;15.10;99.90
7427;DHT22;3755;59.316;18.092;2023-07-13T03:10:03;15.10;99.90
7427;DHT22;3755;59.316;18.092;2023-07-13T03:12:32;15.20;99.90
7427;DHT22;3755;59.316;18.092;2023-07-13T03:14:59;15.20;99.90
7427;DHT22;3755;59.316;18.092;2023-07-13T03:17:26;15.20;99.90
7427;DHT22;3755;59.316;18.092;2023-07-13T03:19:53;15.20;99.90
7427;DHT22;3755;59.316;18.092;2023-07-13T03:22:21;15.30;99.90
7427;DHT22;3755;59.316;18.092;2023-07-13T03:24:48;15.30;99.90
7427;DHT22;3755;59.316;18.092;2023-07-13T03:27:16;15.40;99.90
7427;DHT22;3755;59.316;18.092;2023-07-13T03:29:44;15.40;99.90
7427;DHT22;3755;59.316;18.092;2023-07-13T03:32:11;15.50;99.90
7427;DHT22;3755;59.316;18.092;2023-07-13T03:34:38;15.50;99.90
7427;DHT22;3755;59.316;18.092;2023-07-13T03:37:05;15.50;99.90
7427;DHT22;3755;59.316;18.092;2023-07-13T03:39:34;15.60;99.90
7427;DHT22;3755;59.316;18.092;2023-07-13T03:42:01;15.60;99.90
7427;DHT22;3755;59.316;18.092;2023-07-13T03:44:28;15.40;99.90
7427;DHT22;3755;59.316;18.092;2023-07-13T03:46:55;15.50;99.90
7427;DHT22;3755;59.316;18.092;2023-07-13T03:49:22;15.50;99.90
7427;DHT22;3755;59.316;18.092;2023-07-13T03:51:49;15.50;99.90
7427;DHT22;3755;59.316;18.092;2023-07-13T03:54:16;15.60;99.90
7427;DHT22;3755;59.316;18.092;2023-07-13T03:56:45;15.60;99.90
7427;DHT22;3755;59.316;18.092;2023-07-13T03:59:12;15.70;99.90
7427;DHT22;3755;59.316;18.092;2023-07-13T04:01:39;15.80;99.90
7427;DHT22;3755;59.316;18.092;2023-07-13T04:04:07;15.90;99.90
7427;DHT22;3755;59.316;18.092;2023-07-13T04:06:34;16.00;99.90
7427;DHT22;3755;59.316;18.092;2023-07-13T04:09:03;15.90;99.90
7427;DHT22;3755;59.316;18.092;2023-07-13T04:11:32;15.90;99.90
7427;DHT22;3755;59.316;18.092;2023-07-13T04:14:01;15.90;99.90
7427;DHT22;3755;59.316;18.092;2023-07-13T04:16:28;16.10;99.90
7427;DHT22;3755;59.316;18.092;2023-07-13T04:18:56;16.10;99.90
7427;DHT22;3755;59.316;18.092;2023-07-13T04:21:25;16.20;99.90
7427;DHT22;3755;59.316;18.092;2023-07-13T04:23:53;16.20;99.90
7427;DHT22;3755;59.316;18.092;2023-07-13T04:26:20;16.10;99.90
7427;DHT22;3755;59.316;18.092;2023-07-13T04:28:48;15.90;99.90
7427;DHT22;3755;59.316;18.092;2023-07-13T04:31:17;16.10;99.90
7427;DHT22;3755;59.316;18.092;2023-07-13T04:33:44;16.30;99.90
7427;DHT22;3755;59.316;18.092;2023-07-13T04:36:11;16.40;99.90
7427;DHT22;3755;59.316;18.092;2023-07-13T04:38:40;16.50;99.90
7427;DHT22;3755;59.316;18.092;2023-07-13T04:41:08;16.70;99.90
7427;DHT22;3755;59.316;18.092;2023-07-13T04:43:35;16.80;99.90
7427;DHT22;3755;59.316;18.092;2023-07-13T04:46:04;16.90;99.90
7427;DHT22;3755;59.316;18.092;2023-07-13T04:48:33;16.90;99.90
7427;DHT22;3755;59.316;18.092;2023-07-13T04:51:01;17.10;99.90
7427;DHT22;3755;59.316;18.092;2023-07-13T04:53:29;16.90;99.90
7427;DHT22;3755;59.316;18.092;2023-07-13T04:55:56;16.80;99.90
7427;DHT22;3755;59.316;18.092;2023-07-13T04:58:24;16.80;99.90
7427;DHT22;3755;59.316;18.092;2023-07-13T05:00:53;16.90;99.90
7427;DHT22;3755;59.316;18.092;2023-07-13T05:03:20;16.90;99.90
7427;DHT22;3755;59.316;18.092;2023-07-13T05:05:57;17.10;99.90
7427;DHT22;3755;59.316;18.092;2023-07-13T05:08:25;17.10;99.90
7427;DHT22;3755;59.316;18.092;2023-07-13T05:10:52;17.00;99.90
7427;DHT22;3755;59.316;18.092;2023-07-13T05:13:19;17.30;99.90
7427;DHT22;3755;59.316;18.092;2023-07-13T05:15:52;17.80;99.90
7427;DHT22;3755;59.316;18.092;2023-07-13T05:18:22;18.10;99.90
7427;DHT22;3755;59.316;18.092;2023-07-13T05:20:57;18.10;99.90
7427;DHT22;3755;59.316;18.092;2023-07-13T05:23:25;17.80;99.90
7427;DHT22;3755;59.316;18.092;2023-07-13T05:25:52;17.50;99.90
7427;DHT22;3755;59.316;18.092;2023-07-13T05:28:20;17.50;99.90
7427;DHT22;3755;59.316;18.092;2023-07-13T05:30:47;17.60;99.90
7427;DHT22;3755;59.316;18.092;2023-07-13T05:33:15;17.80;99.90
7427;DHT22;3755;59.316;18.092;2023-07-13T05:35:42;17.90;99.90
7427;DHT22;3755;59.316;18.092;2023-07-13T05:38:11;17.80;99.90
7427;DHT22;3755;59.316;18.092;2023-07-13T05:40:38;17.40;99.90
7427;DHT22;3755;59.316;18.092;2023-07-13T05:43:05;17.20;99.90
7427;DHT22;3755;59.316;18.092;2023-07-13T05:45:33;17.30;99.90
7427;DHT22;3755;59.316;18.092;2023-07-13T05:48:00;17.20;99.90
7427;DHT22;3755;59.316;18.092;2023-07-13T05:50:27;17.20;99.90
7427;DHT22;3755;59.316;18.092;2023-07-13T05:52:54;17.40;99.90
7427;DHT22;3755;59.316;18.092;2023-07-13T05:55:23;17.30;99.90
7427;DHT22;3755;59.316;18.092;2023-07-13T05:57:50;17.30;99.90
7427;DHT22;3755;59.316;18.092;2023-07-13T06:00:18;17.40;99.90
7427;DHT22;3755;59.316;18.092;2023-07-13T06:02:45;17.30;99.90
7427;DHT22;3755;59.316;18.092;2023-07-13T06:05:12;17.40;99.90
7427;DHT22;3755;59.316;18.092;2023-07-13T06:07:40;17.30;99.90
7427;DHT22;3755;59.316;18.092;2023-07-13T06:10:08;17.20;99.90
7427;DHT22;3755;59.316;18.092;2023-07-13T06:12:37;17.30;99.90
7427;DHT22;3755;59.316;18.092;2023-07-13T06:15:05;17.30;99.90
7427;DHT22;3755;59.316;18.092;2023-07-13T06:17:32;17.20;99.90
7427;DHT22;3755;59.316;18.092;2023-07-13T06:20:00;17.30;99.90
7427;DHT22;3755;59.316;18.092;2023-07-13T06:22:27;17.20;99.90
7427;DHT22;3755;59.316;18.092;2023-07-13T06:24:55;17.20;99.90
7427;DHT22;3755;59.316;18.092;2023-07-13T06:27:23;17.20;99.90
7427;DHT22;3755;59.316;18.092;2023-07-13T06:29:51;17.30;99.90
7427;DHT22;3755;59.316;18.092;2023-07-13T06:32:19;17.30;99.90
7427;DHT22;3755;59.316;18.092;2023-07-13T06:34:46;17.40;99.90
7427;DHT22;3755;59.316;18.092;2023-07-13T06:37:14;17.50;99.90
7427;DHT22;3755;59.316;18.092;2023-07-13T06:39:41;17.60;99.90
7427;DHT22;3755;59.316;18.092;2023-07-13T06:42:09;17.60;99.90
7427;DHT22;3755;59.316;18.092;2023-07-13T06:44:36;17.60;99.90
7427;DHT22;3755;59.316;18.092;2023-07-13T06:47:06;17.60;99.90
7427;DHT22;3755;59.316;18.092;2023-07-13T06:49:33;18.00;99.90
7427;DHT22;3755;59.316;18.092;2023-07-13T06:52:00;17.60;99.90
7427;DHT22;3755;59.316;18.092;2023-07-13T06:54:28;17.50;99.90
7427;DHT22;3755;59.316;18.092;2023-07-13T06:56:56;17.50;99.90
7427;DHT22;3755;59.316;18.092;2023-07-13T06:59:23;17.40;99.90
7427;DHT22;3755;59.316;18.092;2023-07-13T07:01:50;17.40;99.90
7427;DHT22;3755;59.316;18.092;2023-07-13T07:04:19;17.40;99.90
7427;DHT22;3755;59.316;18.092;2023-07-13T07:06:47;17.50;99.90
7427;DHT22;3755;59.316;18.092;2023-07-13T07:09:14;17.60;99.90
7427;DHT22;3755;59.316;18.092;2023-07-13T07:11:42;17.80;99.90
7427;DHT22;3755;59.316;18.092;2023-07-13T07:14:09;17.90;99.90
7427;DHT22;3755;59.316;18.092;2023-07-13T07:16:36;17.90;99.90
7427;DHT22;3755;59.316;18.092;2023-07-13T07:19:03;18.00;99.90
7427;DHT22;3755;59.316;18.092;2023-07-13T07:21:32;18.00;99.90
7427;DHT22;3755;59.316;18.092;2023-07-13T07:24:04;18.10;99.90
7427;DHT22;3755;59.316;18.092;2023-07-13T07:26:31;18.10;99.90
7427;DHT22;3755;59.316;18.092;2023-07-13T07:28:58;18.20;99.90
7427;DHT22;3755;59.316;18.092;2023-07-13T07:31:26;18.10;99.90
7427;DHT22;3755;59.316;18.092;2023-07-13T07:33:53;18.30;99.90
7427;DHT22;3755;59.316;18.092;2023-07-13T07:36:21;18.50;99.90
7427;DHT22;3755;59.316;18.092;2023-07-13T07:38:49;18.80;99.90
7427;DHT22;3755;59.316;18.092;2023-07-13T07:41:17;18.60;99.90
7427;DHT22;3755;59.316;18.092;2023-07-13T07:43:44;18.60;99.90
7427;DHT22;3755;59.316;18.092;2023-07-13T07:46:11;18.70;99.90
7427;DHT22;3755;59.316;18.092;2023-07-13T07:48:38;18.80;99.90
7427;DHT22;3755;59.316;18.092;2023-07-13T07:51:06;18.70;99.90
7427;DHT22;3755;59.316;18.092;2023-07-13T07:53:33;18.70;99.90
7427;DHT22;3755;59.316;18.092;2023-07-13T07:56:02;18.70;99.90
7427;DHT22;3755;59.316;18.092;2023-07-13T07:58:29;18.70;99.90
7427;DHT22;3755;59.316;18.092;2023-07-13T08:01:03;18.70;99.90
7427;DHT22;3755;59.316;18.092;2023-07-13T08:03:30;18.90;99.90
7427;DHT22;3755;59.316;18.092;2023-07-13T08:05:58;19.00;99.90
7427;DHT22;3755;59.316;18.092;2023-07-13T08:08:25;19.00;99.90
7427;DHT22;3755;59.316;18.092;2023-07-13T08:10:54;19.20;99.90
7427;DHT22;3755;59.316;18.092;2023-07-13T08:13:29;19.50;99.90
7427;DHT22;3755;59.316;18.092;2023-07-13T08:15:58;19.70;99.90
7427;DHT22;3755;59.316;18.092;2023-07-13T08:18:25;19.50;99.90
7427;DHT22;3755;59.316;18.092;2023-07-13T08:20:53;19.40;99.90
7427;DHT22;3755;59.316;18.092;2023-07-13T08:23:22;19.50;99.90
7427;DHT22;3755;59.316;18.092;2023-07-13T08:25:54;19.40;99.90
7427;DHT22;3755;59.316;18.092;2023-07-13T08:28:22;19.50;99.90
7427;DHT22;3755;59.316;18.092;2023-07-13T08:30:51;19.70;99.90
7427;DHT22;3755;59.316;18.092;2023-07-13T08:33:19;19.60;99.90
7427;DHT22;3755;59.316;18.092;2023-07-13T08:35:47;19.60;99.90
7427;DHT22;3755;59.316;18.092;2023-07-13T08:38:21;19.50;99.90
7427;DHT22;3755;59.316;18.092;2023-07-13T08:40:53;19.50;99.90
7427;DHT22;3755;59.316;18.092;2023-07-13T08:43:26;19.50;99.90
7427;DHT22;3755;59.316;18.092;2023-07-13T08:45:59;19.70;99.90
7427;DHT22;3755;59.316;18.092;2023-07-13T08:48:31;19.70;99.90
7427;DHT22;3755;59.316;18.092;2023-07-13T08:51:04;19.60;99.90
7427;DHT22;3755;59.316;18.092;2023-07-13T08:53:38;19.40;99.90
7427;DHT22;3755;59.316;18.092;2023-07-13T08:56:22;19.70;99.90
7427;DHT22;3755;59.316;18.092;2023-07-13T08:58:53;20.00;99.90
7427;DHT22;3755;59.316;18.092;2023-07-13T09:01:30;20.10;99.90
7427;DHT22;3755;59.316;18.092;2023-07-13T09:04:04;20.30;99.90
7427;DHT22;3755;59.316;18.092;2023-07-13T09:06:42;20.50;99.90
7427;DHT22;3755;59.316;18.092;2023-07-13T09:09:22;20.50;99.90
7427;DHT22;3755;59.316;18.092;2023-07-13T09:11:58;20.50;99.90
7427;DHT22;3755;59.316;18.092;2023-07-13T09:14:43;20.30;99.90
7427;DHT22;3755;59.316;18.092;2023-07-13T09:17:17;20.30;99.90
7427;DHT22;3755;59.316;18.092;2023-07-13T09:19:49;20.20;99.90
7427;DHT22;3755;59.316;18.092;2023-07-13T09:22:19;20.20;99.90
7427;DHT22;3755;59.316;18.092;2023-07-13T09:24:54;20.20;99.90
7427;DHT22;3755;59.316;18.092;2023-07-13T09:27:30;20.20;99.90
7427;DHT22;3755;59.316;18.092;2023-07-13T09:30:04;20.20;99.90
7427;DHT22;3755;59.316;18.092;2023-07-13T09:32:41;20.40;99.90
7427;DHT22;3755;59.316;18.092;2023-07-13T09:35:11;20.10;99.90
7427;DHT22;3755;59.316;18.092;2023-07-13T09:37:39;20.10;99.90
7427;DHT22;3755;59.316;18.092;2023-07-13T09:40:13;20.20;99.90
7427;DHT22;3755;59.316;18.092;2023-07-13T09:42:44;20.40;99.90
7427;DHT22;3755;59.316;18.092;2023-07-13T09:45:26;20.60;99.90
7427;DHT22;3755;59.316;18.092;2023-07-13T09:48:04;20.90;99.90
7427;DHT22;3755;59.316;18.092;2023-07-13T09:50:32;21.00;99.90
7427;DHT22;3755;59.316;18.092;2023-07-13T09:53:01;20.60;99.90
7427;DHT22;3755;59.316;18.092;2023-07-13T09:55:31;20.40;99.90
7427;DHT22;3755;59.316;18.092;2023-07-13T09:58:03;20.50;99.90
7427;DHT22;3755;59.316;18.092;2023-07-13T10:00:32;20.50;99.90
7427;DHT22;3755;59.316;18.092;2023-07-13T10:03:04;20.70;99.90
7427;DHT22;3755;59.316;18.092;2023-07-13T10:05:39;20.60;99.90
7427;DHT22;3755;59.316;18.092;2023-07-13T10:08:10;20.60;99.90
7427;DHT22;3755;59.316;18.092;2023-07-13T10:10:41;20.60;99.90
7427;DHT22;3755;59.316;18.092;2023-07-13T10:13:28;20.50;99.90
7427;DHT22;3755;59.316;18.092;2023-07-13T10:15:57;20.70;99.90
7427;DHT22;3755;59.316;18.092;2023-07-13T10:18:29;20.90;99.90
7427;DHT22;3755;59.316;18.092;2023-07-13T10:21:14;21.20;99.90
7427;DHT22;3755;59.316;18.092;2023-07-13T10:23:42;21.40;99.90
7427;DHT22;3755;59.316;18.092;2023-07-13T10:26:15;21.70;99.20
7427;DHT22;3755;59.316;18.092;2023-07-13T10:28:46;21.50;98.70
7427;DHT22;3755;59.316;18.092;2023-07-13T10:31:16;21.30;99.60
7427;DHT22;3755;59.316;18.092;2023-07-13T10:33:45;21.00;99.90
7427;DHT22;3755;59.316;18.092;2023-07-13T10:36:17;21.00;99.70
7427;DHT22;3755;59.316;18.092;2023-07-13T10:38:49;20.90;99.90
7427;DHT22;3755;59.316;18.092;2023-07-13T10:41:20;20.60;99.90
7427;DHT22;3755;59.316;18.092;2023-07-13T10:43:49;20.70;99.50
7427;DHT22;3755;59.316;18.092;2023-07-13T10:46:19;21.10;98.80
7427;DHT22;3755;59.316;18.092;2023-07-13T10:48:51;21.30;98.10
7427;DHT22;3755;59.316;18.092;2023-07-13T10:51:20;21.50;98.00
7427;DHT22;3755;59.316;18.092;2023-07-13T10:57:06;21.50;97.60
7427;DHT22;3755;59.316;18.092;2023-07-13T10:59:35;21.30;97.80
7427;DHT22;3755;59.316;18.092;2023-07-13T11:02:13;21.50;97.80
7427;DHT22;3755;59.316;18.092;2023-07-13T11:04:45;21.30;98.10
7427;DHT22;3755;59.316;18.092;2023-07-13T11:07:20;21.40;98.40
7427;DHT22;3755;59.316;18.092;2023-07-13T11:09:50;21.70;98.20
7427;DHT22;3755;59.316;18.092;2023-07-13T11:12:51;21.70;97.60
7427;DHT22;3755;59.316;18.092;2023-07-13T11:15:43;21.50;97.60
7427;DHT22;3755;59.316;18.092;2023-07-13T11:18:21;21.30;97.90
7427;DHT22;3755;59.316;18.092;2023-07-13T11:20:50;21.40;97.60
7427;DHT22;3755;59.316;18.092;2023-07-13T11:23:20;21.40;97.70
7427;DHT22;3755;59.316;18.092;2023-07-13T11:25:53;21.70;97.50
7427;DHT22;3755;59.316;18.092;2023-07-13T11:28:25;21.80;97.10
7427;DHT22;3755;59.316;18.092;2023-07-13T11:31:14;21.70;97.40
7427;DHT22;3755;59.316;18.092;2023-07-13T11:33:54;21.70;97.60
7427;DHT22;3755;59.316;18.092;2023-07-13T11:36:35;21.60;97.60
7427;DHT22;3755;59.316;18.092;2023-07-13T11:39:10;21.70;97.60
7427;DHT22;3755;59.316;18.092;2023-07-13T11:41:45;21.70;97.60
7427;DHT22;3755;59.316;18.092;2023-07-13T11:44:19;21.90;97.70
7427;DHT22;3755;59.316;18.092;2023-07-13T11:46:48;22.00;97.50
7427;DHT22;3755;59.316;18.092;2023-07-13T11:49:17;22.40;96.90
7427;DHT22;3755;59.316;18.092;2023-07-13T11:51:47;22.80;96.60
7427;DHT22;3755;59.316;18.092;2023-07-13T11:54:25;22.90;96.60
7427;DHT22;3755;59.316;18.092;2023-07-13T11:56:54;22.70;96.60
7427;DHT22;3755;59.316;18.092;2023-07-13T11:59:23;22.00;97.10
7427;DHT22;3755;59.316;18.092;2023-07-13T12:01:52;21.80;97.60
7427;DHT22;3755;59.316;18.092;2023-07-13T12:04:27;21.80;97.90
7427;DHT22;3755;59.316;18.092;2023-07-13T12:07:03;21.80;97.70
7427;DHT22;3755;59.316;18.092;2023-07-13T12:09:32;21.70;97.90
7427;DHT22;3755;59.316;18.092;2023-07-13T12:12:03;21.80;97.80
7427;DHT22;3755;59.316;18.092;2023-07-13T12:14:34;22.00;97.50
7427;DHT22;3755;59.316;18.092;2023-07-13T12:17:13;22.30;97.30
7427;DHT22;3755;59.316;18.092;2023-07-13T12:19:41;22.30;96.80
7427;DHT22;3755;59.316;18.092;2023-07-13T12:22:12;22.20;97.00
7427;DHT22;3755;59.316;18.092;2023-07-13T12:24:41;22.30;97.10
7427;DHT22;3755;59.316;18.092;2023-07-13T12:27:18;22.40;97.10
7427;DHT22;3755;59.316;18.092;2023-07-13T12:29:50;22.60;97.10
7427;DHT22;3755;59.316;18.092;2023-07-13T12:32:20;22.80;96.90
7427;DHT22;3755;59.316;18.092;2023-07-13T12:34:53;23.00;96.60
7427;DHT22;3755;59.316;18.092;2023-07-13T12:37:25;22.50;96.70
7427;DHT22;3755;59.316;18.092;2023-07-13T12:39:54;22.70;97.00
7427;DHT22;3755;59.316;18.092;2023-07-13T12:42:24;22.80;97.00
7427;DHT22;3755;59.316;18.092;2023-07-13T12:44:54;23.20;95.20
7427;DHT22;3755;59.316;18.092;2023-07-13T12:47:23;23.30;93.50
7427;DHT22;3755;59.316;18.092;2023-07-13T12:49:54;23.40;93.60
7427;DHT22;3755;59.316;18.092;2023-07-13T12:52:28;23.20;94.00
7427;DHT22;3755;59.316;18.092;2023-07-13T12:54:58;23.20;94.00
7427;DHT22;3755;59.316;18.092;2023-07-13T12:57:43;23.20;94.20
7427;DHT22;3755;59.316;18.092;2023-07-13T13:00:23;23.10;94.40
7427;DHT22;3755;59.316;18.092;2023-07-13T13:02:53;22.70;94.60
7427;DHT22;3755;59.316;18.092;2023-07-13T13:05:21;22.90;94.10
7427;DHT22;3755;59.316;18.092;2023-07-13T13:07:50;23.40;94.00
7427;DHT22;3755;59.316;18.092;2023-07-13T13:10:18;23.50;93.30
7427;DHT22;3755;59.316;18.092;2023-07-13T13:12:47;23.40;93.10
7427;DHT22;3755;59.316;18.092;2023-07-13T13:15:14;23.40;93.40
7427;DHT22;3755;59.316;18.092;2023-07-13T13:17:42;23.20;93.40
7427;DHT22;3755;59.316;18.092;2023-07-13T13:20:15;23.20;93.70
7427;DHT22;3755;59.316;18.092;2023-07-13T13:22:43;23.30;93.50
7427;DHT22;3755;59.316;18.092;2023-07-13T13:25:15;23.30;93.30
7427;DHT22;3755;59.316;18.092;2023-07-13T13:27:44;23.20;93.60
7427;DHT22;3755;59.316;18.092;2023-07-13T13:30:12;22.90;93.50
7427;DHT22;3755;59.316;18.092;2023-07-13T13:32:40;22.70;93.60
7427;DHT22;3755;59.316;18.092;2023-07-13T13:35:13;22.80;93.70
7427;DHT22;3755;59.316;18.092;2023-07-13T13:37:40;23.10;93.90
7427;DHT22;3755;59.316;18.092;2023-07-13T13:40:16;23.30;93.70
7427;DHT22;3755;59.316;18.092;2023-07-13T13:42:43;23.60;93.90
7427;DHT22;3755;59.316;18.092;2023-07-13T13:45:11;23.50;93.60
7427;DHT22;3755;59.316;18.092;2023-07-13T13:47:39;23.20;93.30
7427;DHT22;3755;59.316;18.092;2023-07-13T13:50:14;23.10;93.20
7427;DHT22;3755;59.316;18.092;2023-07-13T13:52:42;23.10;93.30
7427;DHT22;3755;59.316;18.092;2023-07-13T13:55:15;23.20;93.30
7427;DHT22;3755;59.316;18.092;2023-07-13T13:57:43;23.10;93.40
7427;DHT22;3755;59.316;18.092;2023-07-13T14:00:11;23.30;93.20
7427;DHT22;3755;59.316;18.092;2023-07-13T14:02:41;23.30;93.20
7427;DHT22;3755;59.316;18.092;2023-07-13T14:05:12;23.40;93.20
7427;DHT22;3755;59.316;18.092;2023-07-13T14:07:41;23.60;93.10
7427;DHT22;3755;59.316;18.092;2023-07-13T14:10:12;23.60;93.10
7427;DHT22;3755;59.316;18.092;2023-07-13T14:12:42;23.40;93.00
7427;DHT22;3755;59.316;18.092;2023-07-13T14:15:15;23.40;93.10
7427;DHT22;3755;59.316;18.092;2023-07-13T14:17:44;23.30;92.40
7427;DHT22;3755;59.316;18.092;2023-07-13T14:20:12;23.20;92.80
7427;DHT22;3755;59.316;18.092;2023-07-13T14:22:41;23.30;93.30
7427;DHT22;3755;59.316;18.092;2023-07-13T14:25:11;23.40;93.50
7427;DHT22;3755;59.316;18.092;2023-07-13T14:27:40;23.10;93.60
7427;DHT22;3755;59.316;18.092;2023-07-13T14:30:14;23.30;93.50
7427;DHT22;3755;59.316;18.092;2023-07-13T14:32:41;23.20;93.40
7427;DHT22;3755;59.316;18.092;2023-07-13T14:35:11;23.00;93.70
7427;DHT22;3755;59.316;18.092;2023-07-13T14:37:39;22.90;94.30
7427;DHT22;3755;59.316;18.092;2023-07-13T14:40:13;23.00;94.70
7427;DHT22;3755;59.316;18.092;2023-07-13T14:42:41;22.80;95.70
7427;DHT22;3755;59.316;18.092;2023-07-13T14:45:14;22.60;96.10
7427;DHT22;3755;59.316;18.092;2023-07-13T14:47:42;22.70;96.50
7427;DHT22;3755;59.316;18.092;2023-07-13T14:50:14;22.70;96.10
7427;DHT22;3755;59.316;18.092;2023-07-13T14:52:43;22.90;95.90
7427;DHT22;3755;59.316;18.092;2023-07-13T14:55:15;22.90;96.10
7427;DHT22;3755;59.316;18.092;2023-07-13T14:57:43;23.00;96.00
7427;DHT22;3755;59.316;18.092;2023-07-13T15:00:17;23.00;96.50
7427;DHT22;3755;59.316;18.092;2023-07-13T15:02:49;22.60;96.90
7427;DHT22;3755;59.316;18.092;2023-07-13T15:05:19;22.70;97.20
7427;DHT22;3755;59.316;18.092;2023-07-13T15:07:47;22.70;97.30
7427;DHT22;3755;59.316;18.092;2023-07-13T15:10:16;22.30;97.20
7427;DHT22;3755;59.316;18.092;2023-07-13T15:12:44;22.10;97.20
7427;DHT22;3755;59.316;18.092;2023-07-13T15:15:11;22.00;97.30
7427;DHT22;3755;59.316;18.092;2023-07-13T15:17:41;22.10;97.40
7427;DHT22;3755;59.316;18.092;2023-07-13T15:20:19;22.00;97.50
7427;DHT22;3755;59.316;18.092;2023-07-13T15:22:47;22.20;97.80
7427;DHT22;3755;59.316;18.092;2023-07-13T15:25:17;22.50;97.90
7427;DHT22;3755;59.316;18.092;2023-07-13T15:27:46;23.10;97.70
7427;DHT22;3755;59.316;18.092;2023-07-13T15:30:14;23.20;97.50
7427;DHT22;3755;59.316;18.092;2023-07-13T15:32:44;22.90;97.50
7427;DHT22;3755;59.316;18.092;2023-07-13T15:35:15;22.80;97.90
7427;DHT22;3755;59.316;18.092;2023-07-13T15:37:43;23.00;98.10
7427;DHT22;3755;59.316;18.092;2023-07-13T15:40:11;22.90;98.20
7427;DHT22;3755;59.316;18.092;2023-07-13T15:42:40;22.70;98.80
7427;DHT22;3755;59.316;18.092;2023-07-13T15:45:16;22.50;98.60
7427;DHT22;3755;59.316;18.092;2023-07-13T15:47:46;22.20;98.90
7427;DHT22;3755;59.316;18.092;2023-07-13T15:50:14;22.00;99.20
7427;DHT22;3755;59.316;18.092;2023-07-13T15:52:44;21.80;99.60
7427;DHT22;3755;59.316;18.092;2023-07-13T15:55:13;21.90;99.50
7427;DHT22;3755;59.316;18.092;2023-07-13T15:57:44;21.90;99.40
7427;DHT22;3755;59.316;18.092;2023-07-13T16:00:18;22.10;99.30
7427;DHT22;3755;59.316;18.092;2023-07-13T16:02:49;22.20;98.90
7427;DHT22;3755;59.316;18.092;2023-07-13T16:05:17;22.30;99.10